sensor_id;sensor_type;location;lat;lon;timestamp;P1;durP1;ratioP1;P2;durP2;ratioP2
78298;SDS011;67556;55.656;12.590;2023-03-04T00:00:24;12.68;;;3.60;;
78298;SDS011;67556;55.656;12.590;2023-03-04T00:02:51;13.10;;;3.70;;
78298;SDS011;67556;55.656;12.590;2023-03-04T00:05:18;9.07;;;3.28;;
78298;SDS011;67556;55.656;12.590;2023-03-04T00:07:45;17.33;;;4.35;;
78298;SDS011;67556;55.656;12.590;2023-03-04T00:10:12;8.00;;;2.78;;
78298;SDS011;67556;55.656;12.590;2023-03-04T00:12:39;8.57;;;3.00;;
78298;SDS011;67556;55.656;12.590;2023-03-04T00:15:08;11.02;;;3.20;;
78298;SDS011;67556;55.656;12.590;2023-03-04T00:17:35;9.82;;;3.03;;
78298;SDS011;67556;55.656;12.590;2023-03-04T00:20:02;13.10;;;3.58;;
78298;SDS011;67556;55.656;12.590;2023-03-04T00:22:29;13.40;;;3.40;;
78298;SDS011;67556;55.656;12.590;2023-03-04T00:24:56;11.18;;;3.20;;
78298;SDS011;67556;55.656;12.590;2023-03-04T00:27:23;9.93;;;3.20;;
78298;SDS011;67556;55.656;12.590;2023-03-04T00:29:50;10.27;;;3.63;;
78298;SDS011;67556;55.656;12.590;2023-03-04T00:32:19;9.30;;;3.05;;
78298;SDS011;67556;55.656;12.590;2023-03-04T00:34:46;8.80;;;3.22;;
78298;SDS011;67556;55.656;12.590;2023-03-04T00:37:13;7.40;;;2.50;;
78298;SDS011;67556;55.656;12.590;2023-03-04T00:39:40;8.25;;;2.95;;
78298;SDS011;67556;55.656;12.590;2023-03-04T00:42:06;10.18;;;3.15;;
78298;SDS011;67556;55.656;12.590;2023-03-04T00:44:33;10.25;;;3.50;;
78298;SDS011;67556;55.656;12.590;2023-03-04T00:47:01;8.48;;;2.95;;
78298;SDS011;67556;55.656;12.590;2023-03-04T00:49:29;12.77;;;3.30;;
78298;SDS011;67556;55.656;12.590;2023-03-04T00:51:56;9.52;;;2.95;;
78298;SDS011;67556;55.656;12.590;2023-03-04T00:54:22;13.82;;;3.25;;
78298;SDS011;67556;55.656;12.590;2023-03-04T00:56:49;11.75;;;3.38;;
78298;SDS011;67556;55.656;12.590;2023-03-04T00:59:16;11.85;;;3.33;;
78298;SDS011;67556;55.656;12.590;2023-03-04T01:01:43;10.75;;;3.67;;
78298;SDS011;67556;55.656;12.590;2023-03-04T01:04:10;11.40;;;3.00;;
78298;SDS011;67556;55.656;12.590;2023-03-04T01:06:38;8.20;;;2.63;;
78298;SDS011;67556;55.656;12.590;2023-03-04T01:09:05;11.20;;;4.05;;
78298;SDS011;67556;55.656;12.590;2023-03-04T01:11:33;16.05;;;3.40;;
78298;SDS011;67556;55.656;12.590;2023-03-04T01:14:00;11.63;;;3.30;;
78298;SDS011;67556;55.656;12.590;2023-03-04T01:16:27;12.88;;;3.20;;
78298;SDS011;67556;55.656;12.590;2023-03-04T01:18:54;10.15;;;3.55;;
78298;SDS011;67556;55.656;12.590;2023-03-04T01:21:21;7.75;;;3.33;;
78298;SDS011;67556;55.656;12.590;2023-03-04T01:23:49;10.13;;;3.03;;
78298;SDS011;67556;55.656;12.590;2023-03-04T01:26:16;9.32;;;3.42;;
78298;SDS011;67556;55.656;12.590;2023-03-04T01:28:43;11.73;;;3.13;;
78298;SDS011;67556;55.656;12.590;2023-03-04T01:31:09;9.73;;;3.53;;
78298;SDS011;67556;55.656;12.590;2023-03-04T01:33:37;10.75;;;3.42;;
78298;SDS011;67556;55.656;12.590;2023-03-04T01:36:04;9.88;;;3.00;;
78298;SDS011;67556;55.656;12.590;2023-03-04T01:38:31;10.82;;;2.92;;
78298;SDS011;67556;55.656;12.590;2023-03-04T01:41:00;10.38;;;3.47;;
78298;SDS011;67556;55.656;12.590;2023-03-04T01:43:28;12.95;;;3.50;;
78298;SDS011;67556;55.656;12.590;2023-03-04T01:45:57;7.82;;;2.97;;
78298;SDS011;67556;55.656;12.590;2023-03-04T01:48:24;12.05;;;3.83;;
78298;SDS011;67556;55.656;12.590;2023-03-04T01:50:53;8.07;;;2.85;;
78298;SDS011;67556;55.656;12.590;2023-03-04T01:53:21;11.15;;;3.47;;
78298;SDS011;67556;55.656;12.590;2023-03-04T01:55:51;13.52;;;3.17;;
78298;SDS011;67556;55.656;12.590;2023-03-04T01:58:20;7.43;;;2.70;;
78298;SDS011;67556;55.656;12.590;2023-03-04T02:00:46;6.95;;;3.58;;
78298;SDS011;67556;55.656;12.590;2023-03-04T02:03:14;9.40;;;3.00;;
78298;SDS011;67556;55.656;12.590;2023-03-04T02:05:46;8.98;;;3.05;;
78298;SDS011;67556;55.656;12.590;2023-03-04T02:08:15;7.38;;;2.75;;
78298;SDS011;67556;55.656;12.590;2023-03-04T02:10:45;6.00;;;2.60;;
78298;SDS011;67556;55.656;12.590;2023-03-04T02:13:13;6.45;;;2.55;;
78298;SDS011;67556;55.656;12.590;2023-03-04T02:15:43;7.25;;;2.90;;
78298;SDS011;67556;55.656;12.590;2023-03-04T02:18:13;8.32;;;2.80;;
78298;SDS011;67556;55.656;12.590;2023-03-04T02:20:44;10.30;;;2.58;;
78298;SDS011;67556;55.656;12.590;2023-03-04T02:23:19;10.48;;;3.50;;
78298;SDS011;67556;55.656;12.590;2023-03-04T02:25:51;9.50;;;2.90;;
78298;SDS011;67556;55.656;12.590;2023-03-04T02:28:32;6.00;;;2.55;;
78298;SDS011;67556;55.656;12.590;2023-03-04T02:30:59;9.20;;;2.92;;
78298;SDS011;67556;55.656;12.590;2023-03-04T02:33:28;12.82;;;3.35;;
78298;SDS011;67556;55.656;12.590;2023-03-04T02:35:54;7.75;;;2.70;;
78298;SDS011;67556;55.656;12.590;2023-03-04T02:38:22;6.40;;;2.40;;
78298;SDS011;67556;55.656;12.590;2023-03-04T02:40:48;10.52;;;3.10;;
78298;SDS011;67556;55.656;12.590;2023-03-04T02:43:19;8.88;;;3.53;;
78298;SDS011;67556;55.656;12.590;2023-03-04T02:45:47;6.93;;;2.42;;
78298;SDS011;67556;55.656;12.590;2023-03-04T02:48:16;11.68;;;2.70;;
78298;SDS011;67556;55.656;12.590;2023-03-04T02:50:46;6.20;;;2.45;;
78298;SDS011;67556;55.656;12.590;2023-03-04T02:53:16;9.55;;;2.95;;
78298;SDS011;67556;55.656;12.590;2023-03-04T02:55:46;10.05;;;3.00;;
78298;SDS011;67556;55.656;12.590;2023-03-04T02:58:13;7.28;;;3.13;;
78298;SDS011;67556;55.656;12.590;2023-03-04T03:00:41;8.75;;;3.40;;
78298;SDS011;67556;55.656;12.590;2023-03-04T03:03:08;8.32;;;2.85;;
78298;SDS011;67556;55.656;12.590;2023-03-04T03:05:36;10.05;;;3.10;;
78298;SDS011;67556;55.656;12.590;2023-03-04T03:08:05;8.45;;;2.88;;
78298;SDS011;67556;55.656;12.590;2023-03-04T03:10:32;11.52;;;3.10;;
78298;SDS011;67556;55.656;12.590;2023-03-04T03:12:59;11.98;;;3.30;;
78298;SDS011;67556;55.656;12.590;2023-03-04T03:15:26;6.15;;;2.90;;
78298;SDS011;67556;55.656;12.590;2023-03-04T03:17:55;8.57;;;2.80;;
78298;SDS011;67556;55.656;12.590;2023-03-04T03:20:22;6.43;;;2.85;;
78298;SDS011;67556;55.656;12.590;2023-03-04T03:22:49;8.02;;;2.80;;
78298;SDS011;67556;55.656;12.590;2023-03-04T03:25:15;8.35;;;2.80;;
78298;SDS011;67556;55.656;12.590;2023-03-04T03:27:42;11.52;;;3.72;;
78298;SDS011;67556;55.656;12.590;2023-03-04T03:30:11;10.02;;;3.20;;
78298;SDS011;67556;55.656;12.590;2023-03-04T03:32:39;7.38;;;2.90;;
78298;SDS011;67556;55.656;12.590;2023-03-04T03:35:07;9.57;;;2.72;;
78298;SDS011;67556;55.656;12.590;2023-03-04T03:37:34;8.65;;;2.78;;
78298;SDS011;67556;55.656;12.590;2023-03-04T03:40:02;10.38;;;2.65;;
78298;SDS011;67556;55.656;12.590;2023-03-04T03:42:29;9.90;;;2.70;;
78298;SDS011;67556;55.656;12.590;2023-03-04T03:44:55;10.15;;;3.30;;
78298;SDS011;67556;55.656;12.590;2023-03-04T03:47:22;15.25;;;4.25;;
78298;SDS011;67556;55.656;12.590;2023-03-04T03:49:50;10.95;;;2.63;;
78298;SDS011;67556;55.656;12.590;2023-03-04T03:52:18;9.10;;;3.00;;
78298;SDS011;67556;55.656;12.590;2023-03-04T03:54:44;11.00;;;3.25;;
78298;SDS011;67556;55.656;12.590;2023-03-04T03:57:11;9.38;;;3.10;;
78298;SDS011;67556;55.656;12.590;2023-03-04T03:59:38;7.43;;;2.53;;
78298;SDS011;67556;55.656;12.590;2023-03-04T04:02:05;8.77;;;2.75;;
78298;SDS011;67556;55.656;12.590;2023-03-04T04:04:31;8.18;;;3.67;;
78298;SDS011;67556;55.656;12.590;2023-03-04T04:06:59;8.65;;;3.15;;
78298;SDS011;67556;55.656;12.590;2023-03-04T04:09:27;8.63;;;3.30;;
78298;SDS011;67556;55.656;12.590;2023-03-04T04:11:55;8.85;;;3.25;;
78298;SDS011;67556;55.656;12.590;2023-03-04T04:14:21;9.50;;;3.22;;
78298;SDS011;67556;55.656;12.590;2023-03-04T04:17:06;11.48;;;3.67;;
78298;SDS011;67556;55.656;12.590;2023-03-04T04:19:35;9.20;;;3.42;;
78298;SDS011;67556;55.656;12.590;2023-03-04T04:22:02;11.02;;;3.83;;
78298;SDS011;67556;55.656;12.590;2023-03-04T04:24:30;8.93;;;3.22;;
78298;SDS011;67556;55.656;12.590;2023-03-04T04:26:58;10.35;;;2.72;;
78298;SDS011;67556;55.656;12.590;2023-03-04T04:29:25;6.70;;;3.17;;
78298;SDS011;67556;55.656;12.590;2023-03-04T04:31:52;7.75;;;2.55;;
78298;SDS011;67556;55.656;12.590;2023-03-04T04:34:19;9.95;;;3.08;;
78298;SDS011;67556;55.656;12.590;2023-03-04T04:36:47;13.27;;;3.25;;
78298;SDS011;67556;55.656;12.590;2023-03-04T04:39:14;10.45;;;2.60;;
78298;SDS011;67556;55.656;12.590;2023-03-04T04:41:43;7.63;;;2.70;;
78298;SDS011;67556;55.656;12.590;2023-03-04T04:44:11;9.98;;;3.50;;
78298;SDS011;67556;55.656;12.590;2023-03-04T04:46:39;9.45;;;3.20;;
78298;SDS011;67556;55.656;12.590;2023-03-04T04:49:06;9.43;;;2.45;;
78298;SDS011;67556;55.656;12.590;2023-03-04T04:51:33;10.02;;;2.83;;
78298;SDS011;67556;55.656;12.590;2023-03-04T04:54:03;9.38;;;2.58;;
78298;SDS011;67556;55.656;12.590;2023-03-04T04:56:31;14.52;;;3.45;;
78298;SDS011;67556;55.656;12.590;2023-03-04T04:59:01;10.65;;;2.85;;
78298;SDS011;67556;55.656;12.590;2023-03-04T05:01:29;9.63;;;2.60;;
78298;SDS011;67556;55.656;12.590;2023-03-04T05:03:56;6.55;;;2.70;;
78298;SDS011;67556;55.656;12.590;2023-03-04T05:06:23;13.27;;;3.05;;
78298;SDS011;67556;55.656;12.590;2023-03-04T05:08:50;12.27;;;2.95;;
78298;SDS011;67556;55.656;12.590;2023-03-04T05:11:18;13.70;;;3.03;;
78298;SDS011;67556;55.656;12.590;2023-03-04T05:13:45;9.57;;;2.83;;
78298;SDS011;67556;55.656;12.590;2023-03-04T05:16:14;9.65;;;2.90;;
78298;SDS011;67556;55.656;12.590;2023-03-04T05:18:42;7.00;;;3.03;;
78298;SDS011;67556;55.656;12.590;2023-03-04T05:21:08;5.75;;;2.40;;
78298;SDS011;67556;55.656;12.590;2023-03-04T05:23:38;9.10;;;2.90;;
78298;SDS011;67556;55.656;12.590;2023-03-04T05:26:07;12.85;;;3.42;;
78298;SDS011;67556;55.656;12.590;2023-03-04T05:28:36;6.20;;;2.45;;
78298;SDS011;67556;55.656;12.590;2023-03-04T05:31:04;9.75;;;2.88;;
78298;SDS011;67556;55.656;12.590;2023-03-04T05:33:33;9.75;;;2.78;;
78298;SDS011;67556;55.656;12.590;2023-03-04T05:36:00;10.52;;;3.00;;
78298;SDS011;67556;55.656;12.590;2023-03-04T05:38:27;9.07;;;2.78;;
78298;SDS011;67556;55.656;12.590;2023-03-04T05:40:56;8.70;;;2.38;;
78298;SDS011;67556;55.656;12.590;2023-03-04T05:43:24;8.32;;;2.60;;
78298;SDS011;67556;55.656;12.590;2023-03-04T05:45:52;6.50;;;2.80;;
78298;SDS011;67556;55.656;12.590;2023-03-04T05:48:20;7.95;;;3.15;;
78298;SDS011;67556;55.656;12.590;2023-03-04T05:50:52;11.50;;;3.80;;
78298;SDS011;67556;55.656;12.590;2023-03-04T05:53:19;7.57;;;2.65;;
78298;SDS011;67556;55.656;12.590;2023-03-04T05:55:46;11.60;;;2.80;;
78298;SDS011;67556;55.656;12.590;2023-03-04T05:58:13;11.77;;;2.85;;
78298;SDS011;67556;55.656;12.590;2023-03-04T06:00:40;14.23;;;2.85;;
78298;SDS011;67556;55.656;12.590;2023-03-04T06:03:06;6.25;;;2.53;;
78298;SDS011;67556;55.656;12.590;2023-03-04T06:05:39;8.18;;;2.83;;
78298;SDS011;67556;55.656;12.590;2023-03-04T06:08:07;11.98;;;2.70;;
78298;SDS011;67556;55.656;12.590;2023-03-04T06:10:34;6.88;;;2.83;;
78298;SDS011;67556;55.656;12.590;2023-03-04T06:13:01;10.98;;;2.63;;
78298;SDS011;67556;55.656;12.590;2023-03-04T06:15:28;8.10;;;2.35;;
78298;SDS011;67556;55.656;12.590;2023-03-04T06:17:56;10.90;;;2.65;;
78298;SDS011;67556;55.656;12.590;2023-03-04T06:20:23;5.28;;;2.15;;
78298;SDS011;67556;55.656;12.590;2023-03-04T06:22:50;7.85;;;2.55;;
78298;SDS011;67556;55.656;12.590;2023-03-04T06:25:19;12.32;;;2.38;;
78298;SDS011;67556;55.656;12.590;2023-03-04T06:27:45;5.57;;;2.22;;
78298;SDS011;67556;55.656;12.590;2023-03-04T06:30:13;5.88;;;2.42;;
78298;SDS011;67556;55.656;12.590;2023-03-04T06:32:40;10.95;;;3.33;;
78298;SDS011;67556;55.656;12.590;2023-03-04T06:35:08;6.68;;;2.28;;
78298;SDS011;67556;55.656;12.590;2023-03-04T06:37:37;6.00;;;2.58;;
78298;SDS011;67556;55.656;12.590;2023-03-04T06:40:04;9.15;;;2.20;;
78298;SDS011;67556;55.656;12.590;2023-03-04T06:42:33;8.02;;;2.40;;
78298;SDS011;67556;55.656;12.590;2023-03-04T06:45:00;5.50;;;2.97;;
78298;SDS011;67556;55.656;12.590;2023-03-04T06:47:27;11.85;;;2.88;;
78298;SDS011;67556;55.656;12.590;2023-03-04T06:49:56;6.75;;;2.42;;
78298;SDS011;67556;55.656;12.590;2023-03-04T06:52:23;7.78;;;2.20;;
78298;SDS011;67556;55.656;12.590;2023-03-04T06:54:50;5.00;;;2.20;;
78298;SDS011;67556;55.656;12.590;2023-03-04T06:57:18;5.55;;;2.30;;
78298;SDS011;67556;55.656;12.590;2023-03-04T06:59:47;6.10;;;2.25;;
78298;SDS011;67556;55.656;12.590;2023-03-04T07:02:14;4.75;;;2.20;;
78298;SDS011;67556;55.656;12.590;2023-03-04T07:04:42;6.43;;;1.98;;
78298;SDS011;67556;55.656;12.590;2023-03-04T07:07:09;5.50;;;2.38;;
78298;SDS011;67556;55.656;12.590;2023-03-04T07:09:36;8.20;;;3.00;;
78298;SDS011;67556;55.656;12.590;2023-03-04T07:12:03;5.07;;;2.13;;
78298;SDS011;67556;55.656;12.590;2023-03-04T07:14:30;5.65;;;2.00;;
78298;SDS011;67556;55.656;12.590;2023-03-04T07:16:59;4.70;;;2.28;;
78298;SDS011;67556;55.656;12.590;2023-03-04T07:19:27;5.03;;;1.90;;
78298;SDS011;67556;55.656;12.590;2023-03-04T07:21:54;10.40;;;2.20;;
78298;SDS011;67556;55.656;12.590;2023-03-04T07:24:22;5.43;;;2.05;;
78298;SDS011;67556;55.656;12.590;2023-03-04T07:26:48;5.97;;;2.25;;
78298;SDS011;67556;55.656;12.590;2023-03-04T07:29:15;6.15;;;2.35;;
78298;SDS011;67556;55.656;12.590;2023-03-04T07:31:42;3.95;;;1.88;;
78298;SDS011;67556;55.656;12.590;2023-03-04T07:34:11;3.67;;;2.33;;
78298;SDS011;67556;55.656;12.590;2023-03-04T07:36:40;4.10;;;2.28;;
78298;SDS011;67556;55.656;12.590;2023-03-04T07:39:07;4.68;;;1.83;;
78298;SDS011;67556;55.656;12.590;2023-03-04T07:41:38;4.13;;;1.98;;
78298;SDS011;67556;55.656;12.590;2023-03-04T07:44:05;7.85;;;2.72;;
78298;SDS011;67556;55.656;12.590;2023-03-04T07:46:33;4.68;;;2.10;;
78298;SDS011;67556;55.656;12.590;2023-03-04T07:49:00;4.20;;;2.10;;
78298;SDS011;67556;55.656;12.590;2023-03-04T07:51:29;3.92;;;1.55;;
78298;SDS011;67556;55.656;12.590;2023-03-04T07:53:57;5.32;;;2.38;;
78298;SDS011;67556;55.656;12.590;2023-03-04T07:56:26;4.82;;;1.92;;
78298;SDS011;67556;55.656;12.590;2023-03-04T07:58:54;3.95;;;1.60;;
78298;SDS011;67556;55.656;12.590;2023-03-04T08:01:22;4.95;;;2.03;;
78298;SDS011;67556;55.656;12.590;2023-03-04T08:03:50;5.20;;;2.20;;
78298;SDS011;67556;55.656;12.590;2023-03-04T08:06:18;7.45;;;2.38;;
78298;SDS011;67556;55.656;12.590;2023-03-04T08:08:48;3.13;;;1.75;;
78298;SDS011;67556;55.656;12.590;2023-03-04T08:11:21;5.65;;;2.10;;
78298;SDS011;67556;55.656;12.590;2023-03-04T08:13:47;2.60;;;2.10;;
78298;SDS011;67556;55.656;12.590;2023-03-04T08:16:15;5.18;;;1.70;;
78298;SDS011;67556;55.656;12.590;2023-03-04T08:18:45;6.28;;;1.67;;
78298;SDS011;67556;55.656;12.590;2023-03-04T08:21:14;4.00;;;1.60;;
78298;SDS011;67556;55.656;12.590;2023-03-04T08:23:44;3.60;;;1.80;;
78298;SDS011;67556;55.656;12.590;2023-03-04T08:26:16;2.63;;;1.60;;
78298;SDS011;67556;55.656;12.590;2023-03-04T08:28:45;3.58;;;1.73;;
78298;SDS011;67556;55.656;12.590;2023-03-04T08:31:12;2.08;;;1.55;;
78298;SDS011;67556;55.656;12.590;2023-03-04T08:33:40;2.08;;;1.50;;
78298;SDS011;67556;55.656;12.590;2023-03-04T08:36:07;2.70;;;1.80;;
78298;SDS011;67556;55.656;12.590;2023-03-04T08:38:34;1.80;;;1.40;;
78298;SDS011;67556;55.656;12.590;2023-03-04T08:41:05;1.83;;;1.50;;
78298;SDS011;67556;55.656;12.590;2023-03-04T08:43:33;2.67;;;1.42;;
78298;SDS011;67556;55.656;12.590;2023-03-04T08:46:00;3.25;;;1.75;;
78298;SDS011;67556;55.656;12.590;2023-03-04T08:48:28;3.72;;;1.77;;
78298;SDS011;67556;55.656;12.590;2023-03-04T08:50:55;3.75;;;1.50;;
78298;SDS011;67556;55.656;12.590;2023-03-04T08:53:22;1.70;;;1.42;;
78298;SDS011;67556;55.656;12.590;2023-03-04T08:55:50;2.28;;;1.65;;
78298;SDS011;67556;55.656;12.590;2023-03-04T08:58:17;4.68;;;1.40;;
78298;SDS011;67556;55.656;12.590;2023-03-04T09:00:46;2.88;;;1.70;;
78298;SDS011;67556;55.656;12.590;2023-03-04T09:03:16;4.18;;;1.52;;
78298;SDS011;67556;55.656;12.590;2023-03-04T09:05:46;2.08;;;1.58;;
78298;SDS011;67556;55.656;12.590;2023-03-04T09:08:13;2.88;;;1.70;;
78298;SDS011;67556;55.656;12.590;2023-03-04T09:10:41;3.25;;;2.03;;
78298;SDS011;67556;55.656;12.590;2023-03-04T09:13:08;3.10;;;1.52;;
78298;SDS011;67556;55.656;12.590;2023-03-04T09:15:36;1.70;;;1.52;;
78298;SDS011;67556;55.656;12.590;2023-03-04T09:18:10;1.83;;;1.42;;
78298;SDS011;67556;55.656;12.590;2023-03-04T09:20:37;2.90;;;1.52;;
78298;SDS011;67556;55.656;12.590;2023-03-04T09:23:04;1.65;;;1.50;;
78298;SDS011;67556;55.656;12.590;2023-03-04T09:25:31;1.75;;;1.50;;
78298;SDS011;67556;55.656;12.590;2023-03-04T09:27:57;2.15;;;1.27;;
78298;SDS011;67556;55.656;12.590;2023-03-04T09:30:24;2.25;;;1.70;;
78298;SDS011;67556;55.656;12.590;2023-03-04T09:32:53;2.33;;;1.60;;
78298;SDS011;67556;55.656;12.590;2023-03-04T09:35:21;1.73;;;1.17;;
78298;SDS011;67556;55.656;12.590;2023-03-04T09:37:48;4.38;;;1.50;;
78298;SDS011;67556;55.656;12.590;2023-03-04T09:40:15;2.00;;;1.45;;
78298;SDS011;67556;55.656;12.590;2023-03-04T09:42:46;1.40;;;1.25;;
78298;SDS011;67556;55.656;12.590;2023-03-04T09:45:18;2.83;;;1.50;;
78298;SDS011;67556;55.656;12.590;2023-03-04T09:47:47;1.60;;;1.33;;
78298;SDS011;67556;55.656;12.590;2023-03-04T09:50:17;1.30;;;1.20;;
78298;SDS011;67556;55.656;12.590;2023-03-04T09:52:55;1.38;;;1.27;;
78298;SDS011;67556;55.656;12.590;2023-03-04T09:55:31;2.58;;;1.33;;
78298;SDS011;67556;55.656;12.590;2023-03-04T09:58:02;2.42;;;1.30;;
78298;SDS011;67556;55.656;12.590;2023-03-04T10:00:34;1.92;;;1.73;;
78298;SDS011;67556;55.656;12.590;2023-03-04T10:03:09;2.15;;;1.50;;
78298;SDS011;67556;55.656;12.590;2023-03-04T10:05:41;3.75;;;1.42;;
78298;SDS011;67556;55.656;12.590;2023-03-04T10:08:29;2.30;;;1.60;;
78298;SDS011;67556;55.656;12.590;2023-03-04T10:11:02;2.10;;;1.30;;
78298;SDS011;67556;55.656;12.590;2023-03-04T10:13:37;1.73;;;1.13;;
78298;SDS011;67556;55.656;12.590;2023-03-04T10:16:11;1.75;;;1.42;;
78298;SDS011;67556;55.656;12.590;2023-03-04T10:18:44;1.90;;;1.00;;
78298;SDS011;67556;55.656;12.590;2023-03-04T10:21:19;1.40;;;1.30;;
78298;SDS011;67556;55.656;12.590;2023-03-04T10:23:53;2.22;;;1.85;;
78298;SDS011;67556;55.656;12.590;2023-03-04T10:26:19;1.40;;;1.30;;
78298;SDS011;67556;55.656;12.590;2023-03-04T10:28:48;1.83;;;1.27;;
78298;SDS011;67556;55.656;12.590;2023-03-04T10:31:18;2.03;;;1.38;;
78298;SDS011;67556;55.656;12.590;2023-03-04T10:33:48;1.42;;;1.33;;
78298;SDS011;67556;55.656;12.590;2023-03-04T10:36:23;1.95;;;1.30;;
78298;SDS011;67556;55.656;12.590;2023-03-04T10:39:01;1.55;;;1.23;;
78298;SDS011;67556;55.656;12.590;2023-03-04T10:41:33;1.60;;;1.50;;
78298;SDS011;67556;55.656;12.590;2023-03-04T10:44:01;1.25;;;1.15;;
78298;SDS011;67556;55.656;12.590;2023-03-04T10:46:36;1.98;;;1.50;;
78298;SDS011;67556;55.656;12.590;2023-03-04T10:49:06;1.42;;;1.33;;
78298;SDS011;67556;55.656;12.590;2023-03-04T10:51:40;1.38;;;1.23;;
78298;SDS011;67556;55.656;12.590;2023-03-04T10:54:15;1.48;;;1.30;;
78298;SDS011;67556;55.656;12.590;2023-03-04T10:56:54;1.27;;;1.00;;
78298;SDS011;67556;55.656;12.590;2023-03-04T11:02:29;1.80;;;1.70;;
78298;SDS011;67556;55.656;12.590;2023-03-04T11:05:15;1.80;;;1.50;;
78298;SDS011;67556;55.656;12.590;2023-03-04T11:07:44;4.05;;;1.50;;
78298;SDS011;67556;55.656;12.590;2023-03-04T11:10:17;1.40;;;1.30;;
78298;SDS011;67556;55.656;12.590;2023-03-04T11:12:49;2.95;;;1.30;;
78298;SDS011;67556;55.656;12.590;2023-03-04T11:15:18;1.83;;;1.45;;
78298;SDS011;67556;55.656;12.590;2023-03-04T11:17:53;2.53;;;1.42;;
78298;SDS011;67556;55.656;12.590;2023-03-04T11:20:25;1.50;;;1.40;;
78298;SDS011;67556;55.656;12.590;2023-03-04T11:22:56;1.80;;;1.30;;
78298;SDS011;67556;55.656;12.590;2023-03-04T11:25:28;1.48;;;1.38;;
78298;SDS011;67556;55.656;12.590;2023-03-04T11:28:00;2.25;;;1.10;;
78298;SDS011;67556;55.656;12.590;2023-03-04T11:30:32;3.50;;;2.38;;
78298;SDS011;67556;55.656;12.590;2023-03-04T11:33:05;2.60;;;1.50;;
78298;SDS011;67556;55.656;12.590;2023-03-04T11:35:41;5.72;;;3.03;;
78298;SDS011;67556;55.656;12.590;2023-03-04T11:38:18;1.35;;;1.25;;
78298;SDS011;67556;55.656;12.590;2023-03-04T11:40:49;2.85;;;1.75;;
78298;SDS011;67556;55.656;12.590;2023-03-04T11:43:21;1.50;;;1.40;;
78298;SDS011;67556;55.656;12.590;2023-03-04T11:45:57;2.63;;;1.23;;
78298;SDS011;67556;55.656;12.590;2023-03-04T11:48:43;1.85;;;1.20;;
78298;SDS011;67556;55.656;12.590;2023-03-04T11:51:17;1.40;;;1.25;;
78298;SDS011;67556;55.656;12.590;2023-03-04T11:53:55;1.50;;;1.20;;
78298;SDS011;67556;55.656;12.590;2023-03-04T11:56:40;1.45;;;1.35;;
78298;SDS011;67556;55.656;12.590;2023-03-04T11:59:13;1.92;;;1.23;;
78298;SDS011;67556;55.656;12.590;2023-03-04T12:01:57;2.47;;;1.20;;
78298;SDS011;67556;55.656;12.590;2023-03-04T12:04:39;1.58;;;1.48;;
78298;SDS011;67556;55.656;12.590;2023-03-04T12:07:19;1.65;;;1.33;;
78298;SDS011;67556;55.656;12.590;2023-03-04T12:10:03;1.10;;;1.00;;
78298;SDS011;67556;55.656;12.590;2023-03-04T12:12:45;1.80;;;1.70;;
78298;SDS011;67556;55.656;12.590;2023-03-04T12:15:25;1.90;;;1.20;;
78298;SDS011;67556;55.656;12.590;2023-03-04T12:18:04;2.20;;;1.55;;
78298;SDS011;67556;55.656;12.590;2023-03-04T12:20:47;1.55;;;1.45;;
78298;SDS011;67556;55.656;12.590;2023-03-04T12:23:28;1.58;;;1.10;;
78298;SDS011;67556;55.656;12.590;2023-03-04T12:26:19;1.50;;;1.17;;
78298;SDS011;67556;55.656;12.590;2023-03-04T12:28:53;1.30;;;1.20;;
78298;SDS011;67556;55.656;12.590;2023-03-04T12:31:29;1.85;;;1.73;;
78298;SDS011;67556;55.656;12.590;2023-03-04T12:34:20;2.20;;;1.75;;
78298;SDS011;67556;55.656;12.590;2023-03-04T12:36:59;5.40;;;1.63;;
78298;SDS011;67556;55.656;12.590;2023-03-04T12:39:36;2.03;;;1.52;;
78298;SDS011;67556;55.656;12.590;2023-03-04T12:42:08;2.03;;;1.38;;
78298;SDS011;67556;55.656;12.590;2023-03-04T12:44:47;3.33;;;1.27;;
78298;SDS011;67556;55.656;12.590;2023-03-04T12:47:24;1.65;;;1.17;;
78298;SDS011;67556;55.656;12.590;2023-03-04T12:50:00;4.68;;;1.42;;
78298;SDS011;67556;55.656;12.590;2023-03-04T12:52:39;2.13;;;1.50;;
78298;SDS011;67556;55.656;12.590;2023-03-04T12:55:13;2.38;;;1.33;;
78298;SDS011;67556;55.656;12.590;2023-03-04T12:57:42;4.43;;;1.63;;
78298;SDS011;67556;55.656;12.590;2023-03-04T13:00:16;1.30;;;1.20;;
78298;SDS011;67556;55.656;12.590;2023-03-04T13:02:57;2.22;;;1.50;;
78298;SDS011;67556;55.656;12.590;2023-03-04T13:05:35;1.50;;;1.35;;
78298;SDS011;67556;55.656;12.590;2023-03-04T13:08:11;1.50;;;1.15;;
78298;SDS011;67556;55.656;12.590;2023-03-04T13:10:48;1.77;;;1.40;;
78298;SDS011;67556;55.656;12.590;2023-03-04T13:16:23;1.55;;;1.45;;
78298;SDS011;67556;55.656;12.590;2023-03-04T13:18:56;1.58;;;1.45;;
78298;SDS011;67556;55.656;12.590;2023-03-04T13:21:24;1.98;;;1.35;;
78298;SDS011;67556;55.656;12.590;2023-03-04T13:23:53;1.60;;;1.50;;
78298;SDS011;67556;55.656;12.590;2023-03-04T13:26:21;1.73;;;1.27;;
78298;SDS011;67556;55.656;12.590;2023-03-04T13:29:08;1.38;;;1.02;;
78298;SDS011;67556;55.656;12.590;2023-03-04T13:31:58;1.88;;;1.27;;
78298;SDS011;67556;55.656;12.590;2023-03-04T13:34:46;1.27;;;1.17;;
78298;SDS011;67556;55.656;12.590;2023-03-04T13:37:26;1.33;;;1.23;;
78298;SDS011;67556;55.656;12.590;2023-03-04T13:43:08;2.50;;;1.70;;
78298;SDS011;67556;55.656;12.590;2023-03-04T13:45:49;2.17;;;1.30;;
78298;SDS011;67556;55.656;12.590;2023-03-04T13:48:27;1.77;;;1.40;;
78298;SDS011;67556;55.656;12.590;2023-03-04T13:51:00;1.33;;;1.23;;
78298;SDS011;67556;55.656;12.590;2023-03-04T13:53:33;1.83;;;1.30;;
78298;SDS011;67556;55.656;12.590;2023-03-04T13:56:10;1.27;;;1.00;;
78298;SDS011;67556;55.656;12.590;2023-03-04T13:58:45;1.70;;;1.00;;
78298;SDS011;67556;55.656;12.590;2023-03-04T14:01:20;4.82;;;1.60;;
78298;SDS011;67556;55.656;12.590;2023-03-04T14:03:53;1.33;;;1.23;;
78298;SDS011;67556;55.656;12.590;2023-03-04T14:06:21;1.65;;;1.25;;
78298;SDS011;67556;55.656;12.590;2023-03-04T14:08:51;1.88;;;1.15;;
78298;SDS011;67556;55.656;12.590;2023-03-04T14:11:23;3.33;;;1.40;;
78298;SDS011;67556;55.656;12.590;2023-03-04T14:13:54;2.42;;;1.42;;
78298;SDS011;67556;55.656;12.590;2023-03-04T14:16:25;2.10;;;1.58;;
78298;SDS011;67556;55.656;12.590;2023-03-04T14:19:02;2.45;;;1.40;;
78298;SDS011;67556;55.656;12.590;2023-03-04T14:21:30;2.38;;;1.40;;
78298;SDS011;67556;55.656;12.590;2023-03-04T14:24:02;3.35;;;2.00;;
78298;SDS011;67556;55.656;12.590;2023-03-04T14:26:30;1.95;;;1.25;;
78298;SDS011;67556;55.656;12.590;2023-03-04T14:28:57;2.00;;;1.23;;
78298;SDS011;67556;55.656;12.590;2023-03-04T14:31:27;2.35;;;1.10;;
78298;SDS011;67556;55.656;12.590;2023-03-04T14:33:55;2.08;;;1.42;;
78298;SDS011;67556;55.656;12.590;2023-03-04T14:36:27;2.05;;;1.40;;
78298;SDS011;67556;55.656;12.590;2023-03-04T14:39:03;2.75;;;1.40;;
78298;SDS011;67556;55.656;12.590;2023-03-04T14:41:33;2.45;;;1.33;;
78298;SDS011;67556;55.656;12.590;2023-03-04T14:44:07;3.53;;;1.33;;
78298;SDS011;67556;55.656;12.590;2023-03-04T14:46:39;2.72;;;1.60;;
78298;SDS011;67556;55.656;12.590;2023-03-04T14:49:10;1.80;;;1.30;;
78298;SDS011;67556;55.656;12.590;2023-03-04T14:51:41;2.80;;;1.30;;
78298;SDS011;67556;55.656;12.590;2023-03-04T14:56:58;1.38;;;1.15;;
78298;SDS011;67556;55.656;12.590;2023-03-04T14:59:27;3.17;;;1.60;;